Time;durP1;ratioP1;P1;durP2;ratioP2;P2;SDS_P1;SDS_P2;PMS_P1;PMS_P2;Temp;Humidity;BMP_temperature;BMP_pressure;BME280_temperature;BME280_humidity;BME280_pressure;Samples;Min_cycle;Max_cycle;Signal;HPM_P1;HPM_P2
2021/03/12 00:00:52;;;;;;;5.57;1.40;;;8.00;99.90;;;;;;5068713;28;20423;-79
2021/03/12 00:03:29;;;;;;;6.83;1.57;;;7.80;99.90;;;;;;5071640;28;20430;-79
2021/03/12 00:06:25;;;;;;;3.50;1.40;;;8.00;99.90;;;;;;5063413;28;20415;-79
2021/03/12 00:08:51;;;;;;;5.40;1.40;;;8.10;99.90;;;;;;5050605;28;20399;-78
2021/03/12 00:11:25;;;;;;;3.77;1.60;;;8.10;99.90;;;;;;5041094;28;20481;-79
2021/03/12 00:13:54;;;;;;;2.70;1.60;;;8.10;99.90;;;;;;5094502;28;20271;-79
2021/03/12 00:16:22;;;;;;;6.80;2.13;;;7.90;99.90;;;;;;5104057;28;20503;-78
2021/03/12 00:18:55;;;;;;;4.23;1.57;;;7.80;99.90;;;;;;5083631;28;20435;-79
2021/03/12 00:21:30;;;;;;;4.67;1.77;;;7.80;99.90;;;;;;5082733;28;20507;-79
2021/03/12 00:24:11;;;;;;;8.80;2.30;;;8.10;99.90;;;;;;5074532;28;20446;-79
2021/03/12 00:29:50;;;;;;;3.23;1.40;;;7.90;99.90;;;;;;5099496;28;20426;-79
2021/03/12 00:32:25;;;;;;;4.67;2.67;;;7.80;99.90;;;;;;5086435;28;20475;-78
2021/03/12 00:34:54;;;;;;;1.80;1.30;;;7.90;99.90;;;;;;5086194;28;20422;-78
2021/03/12 00:37:20;;;;;;;3.93;1.80;;;7.90;99.90;;;;;;5083486;28;20805;-78
2021/03/12 00:39:56;;;;;;;3.10;1.40;;;7.80;99.90;;;;;;5078857;28;20696;-78
2021/03/12 00:42:22;;;;;;;5.37;1.70;;;7.40;99.90;;;;;;5094782;28;20507;-79
2021/03/12 00:45:26;;;;;;;5.03;2.10;;;7.70;99.90;;;;;;5106440;28;20448;-78
2021/03/12 00:48:02;;;;;;;4.20;1.70;;;7.50;99.90;;;;;;5035271;28;20459;-78
2021/03/12 00:50:39;;;;;;;5.13;1.80;;;7.40;99.90;;;;;;5026027;28;20416;-79
2021/03/12 00:53:26;;;;;;;8.90;1.83;;;7.40;99.90;;;;;;5026583;28;20451;-79
2021/03/12 00:56:01;;;;;;;3.83;1.70;;;7.50;99.90;;;;;;5006267;28;20441;-79
2021/03/12 00:58:36;;;;;;;2.03;1.47;;;7.50;99.90;;;;;;5018500;28;20794;-78
2021/03/12 01:01:05;;;;;;;2.90;1.50;;;7.60;99.90;;;;;;5069337;28;20531;-78
2021/03/12 01:03:37;;;;;;;2.00;1.80;;;7.60;99.90;;;;;;5089470;28;20436;-79
2021/03/12 01:06:14;;;;;;;3.23;2.10;;;7.60;99.90;;;;;;5107376;28;20511;-79
2021/03/12 01:08:46;;;;;;;4.30;1.97;;;7.40;99.90;;;;;;5084056;28;20431;-78
2021/03/12 01:11:21;;;;;;;11.63;2.70;;;7.60;99.90;;;;;;5089595;28;20464;-79
2021/03/12 01:13:47;;;;;;;7.30;1.70;;;7.20;99.90;;;;;;5063873;28;20454;-78
2021/03/12 01:16:22;;;;;;;5.40;2.53;;;7.40;99.90;;;;;;5083483;28;20410;-78
2021/03/12 01:18:56;;;;;;;5.37;1.80;;;7.50;99.90;;;;;;5086815;28;20266;-78
2021/03/12 01:21:25;;;;;;;5.37;1.77;;;7.40;99.90;;;;;;5102170;28;21022;-79
2021/03/12 01:23:51;;;;;;;5.70;2.00;;;7.50;99.90;;;;;;5057806;28;20962;-79
2021/03/12 01:26:32;;;;;;;5.90;2.03;;;7.60;99.90;;;;;;5074190;28;20414;-79
2021/03/12 01:28:58;;;;;;;3.80;2.10;;;7.50;99.90;;;;;;5097937;28;20191;-79
2021/03/12 01:31:33;;;;;;;5.00;2.00;;;7.60;99.90;;;;;;5098693;28;20773;-78
2021/03/12 01:34:01;;;;;;;5.63;2.30;;;7.50;99.90;;;;;;5103123;28;20445;-78
2021/03/12 01:36:36;;;;;;;4.33;1.90;;;7.70;99.90;;;;;;5105438;28;20418;-79
2021/03/12 01:39:09;;;;;;;7.97;2.07;;;7.50;99.90;;;;;;5071543;28;20801;-79
2021/03/12 01:41:50;;;;;;;8.00;2.33;;;7.60;99.90;;;;;;5084002;28;20458;-78
2021/03/12 01:44:34;;;;;;;5.10;2.83;;;7.70;99.90;;;;;;5094278;28;20444;-79
2021/03/12 01:47:03;;;;;;;9.67;2.70;;;7.40;99.90;;;;;;5073832;28;20421;-79
2021/03/12 01:49:29;;;;;;;4.50;1.90;;;7.50;99.90;;;;;;5090526;28;20431;-78
2021/03/12 01:52:00;;;;;;;6.87;2.80;;;7.50;99.90;;;;;;5085890;28;20771;-79
2021/03/12 01:54:29;;;;;;;3.77;2.53;;;7.80;99.90;;;;;;5077192;28;20196;-79
2021/03/12 01:56:55;;;;;;;3.30;2.30;;;7.60;99.90;;;;;;5083707;28;20433;-78
2021/03/12 01:59:56;;;;;;;6.47;3.60;;;7.70;99.90;;;;;;5037458;28;20435;-79
2021/03/12 02:02:22;;;;;;;5.90;3.07;;;7.50;99.90;;;;;;5101512;28;20873;-79
2021/03/12 02:04:57;;;;;;;6.30;4.83;;;7.50;99.90;;;;;;5101089;28;20509;-78
2021/03/12 02:08:01;;;;;;;5.63;4.97;;;7.40;99.90;;;;;;5085080;28;20214;-78
2021/03/12 02:10:30;;;;;;;8.27;5.03;;;7.50;99.90;;;;;;5059286;28;20430;-79
2021/03/12 02:13:05;;;;;;;5.53;3.90;;;7.60;99.90;;;;;;5096417;28;20782;-79
2021/03/12 02:16:01;;;;;;;8.93;3.90;;;7.40;99.90;;;;;;5093207;28;20421;-79
2021/03/12 02:19:06;;;;;;;3.70;3.27;;;7.30;99.90;;;;;;5100121;28;20442;-79
2021/03/12 02:21:41;;;;;;;7.63;3.73;;;7.40;99.90;;;;;;5106560;28;20465;-78
2021/03/12 02:24:20;;;;;;;5.37;4.20;;;7.40;99.90;;;;;;5079395;28;20430;-78
2021/03/12 02:26:48;;;;;;;8.63;3.70;;;7.40;99.90;;;;;;5099625;28;20479;-78
2021/03/12 02:29:23;;;;;;;9.37;3.60;;;7.40;99.90;;;;;;5085186;28;20497;-78
2021/03/12 02:31:51;;;;;;;6.77;3.50;;;7.40;99.90;;;;;;5067941;28;20433;-78
2021/03/12 02:34:19;;;;;;;5.20;3.03;;;7.40;99.90;;;;;;5087676;28;20422;-78
2021/03/12 02:36:52;;;;;;;7.10;4.00;;;7.20;99.90;;;;;;5105137;28;20454;-78
2021/03/12 02:39:21;;;;;;;4.80;2.90;;;7.40;99.90;;;;;;5087491;28;20835;-79
2021/03/12 02:41:53;;;;;;;4.50;2.60;;;7.20;99.90;;;;;;5099408;28;20519;-78
2021/03/12 02:44:21;;;;;;;5.60;4.03;;;7.40;99.90;;;;;;5096872;28;20461;-79
2021/03/12 02:46:48;;;;;;;4.30;3.20;;;7.20;99.90;;;;;;5090698;28;20429;-78
2021/03/12 02:49:14;;;;;;;3.63;2.70;;;7.40;99.90;;;;;;5100964;28;20426;-79
2021/03/12 02:51:43;;;;;;;6.27;3.00;;;7.30;99.90;;;;;;5104364;28;20889;-79
2021/03/12 02:54:23;;;;;;;10.60;3.70;;;7.40;99.90;;;;;;5087060;28;20439;-79
2021/03/12 02:56:58;;;;;;;7.47;4.10;;;7.40;99.90;;;;;;5108824;27;20696;-79
2021/03/12 02:59:25;;;;;;;4.27;3.50;;;7.40;99.90;;;;;;5084949;28;20496;-79
2021/03/12 03:05:13;;;;;;;9.13;3.60;;;7.20;99.90;;;;;;5076705;28;20510;-79
2021/03/12 03:07:49;;;;;;;6.10;4.10;;;7.30;99.90;;;;;;5104778;28;20948;-79
2021/03/12 03:10:17;;;;;;;5.90;3.10;;;7.30;99.90;;;;;;5109066;27;20920;-79
2021/03/12 03:12:52;;;;;;;6.53;3.50;;;7.40;99.90;;;;;;5090454;28;20468;-79
2021/03/12 03:15:40;;;;;;;7.80;4.33;;;7.40;99.90;;;;;;5064136;28;20472;-79
2021/03/12 03:18:08;;;;;;;6.80;3.60;;;7.50;99.90;;;;;;5104281;28;20426;-79
2021/03/12 03:20:49;;;;;;;10.57;3.47;;;7.40;99.90;;;;;;5105981;28;20560;-79
2021/03/12 03:23:27;;;;;;;5.20;2.90;;;7.50;99.90;;;;;;5125597;27;20446;-79
2021/03/12 03:25:59;;;;;;;5.33;3.27;;;7.30;99.90;;;;;;5078259;28;20794;-78
2021/03/12 03:28:34;;;;;;;6.13;3.67;;;7.20;99.90;;;;;;5070731;28;20422;-78
2021/03/12 03:31:06;;;;;;;6.40;3.63;;;7.20;99.90;;;;;;5093808;28;20450;-79
2021/03/12 03:33:41;;;;;;;7.17;4.13;;;7.40;99.90;;;;;;5110772;27;20789;-78
2021/03/12 03:36:16;;;;;;;3.50;2.43;;;7.40;99.90;;;;;;5095514;28;20501;-79
2021/03/12 03:38:51;;;;;;;7.60;3.33;;;7.20;99.90;;;;;;5104635;28;20425;-78
2021/03/12 03:41:27;;;;;;;9.57;3.50;;;7.20;99.90;;;;;;5118604;27;20456;-79
2021/03/12 03:43:56;;;;;;;3.10;2.40;;;7.10;99.90;;;;;;5101687;28;20567;-79
2021/03/12 03:46:24;;;;;;;6.13;3.20;;;7.20;99.90;;;;;;5078432;28;20464;-79
2021/03/12 03:48:51;;;;;;;5.97;3.60;;;7.30;99.90;;;;;;5104372;28;20434;-79
2021/03/12 03:51:21;;;;;;;3.77;2.83;;;7.30;99.90;;;;;;5086683;28;20511;-79
2021/03/12 03:53:53;;;;;;;9.80;3.20;;;7.30;99.90;;;;;;5088414;28;20421;-79
2021/03/12 03:56:52;;;;;;;5.50;3.17;;;7.30;99.90;;;;;;5109856;27;20423;-79
2021/03/12 03:59:22;;;;;;;6.00;3.13;;;7.30;99.90;;;;;;5096079;28;20483;-79
2021/03/12 04:01:57;;;;;;;6.20;3.43;;;7.20;99.90;;;;;;5082391;28;20528;-79
2021/03/12 04:04:23;;;;;;;6.60;2.43;;;7.20;99.90;;;;;;5103038;28;20524;-79
2021/03/12 04:07:02;;;;;;;6.97;3.50;;;7.00;99.90;;;;;;5090662;28;20448;-78
2021/03/12 04:09:41;;;;;;;7.23;3.00;;;7.00;99.90;;;;;;5129995;27;20958;-79
2021/03/12 04:12:14;;;;;;;4.83;2.83;;;7.30;99.90;;;;;;5085910;28;20429;-80
2021/03/12 04:14:41;;;;;;;6.00;2.53;;;7.40;99.90;;;;;;5091417;28;20840;-79
2021/03/12 04:17:23;;;;;;;5.63;2.90;;;7.40;99.90;;;;;;5107134;28;20503;-79
2021/03/12 04:20:09;;;;;;;5.70;3.60;;;7.30;99.90;;;;;;5091947;28;20437;-78
2021/03/12 04:22:56;;;;;;;8.17;3.60;;;7.20;99.90;;;;;;5138507;27;20438;-79
2021/03/12 04:25:54;;;;;;;6.37;2.83;;;7.30;99.90;;;;;;5065489;28;20497;-78
2021/03/12 04:28:20;;;;;;;6.33;3.07;;;7.10;99.90;;;;;;5097192;28;21000;-78
2021/03/12 04:30:55;;;;;;;5.40;3.27;;;7.40;99.90;;;;;;5102914;28;20520;-79
2021/03/12 04:33:24;;;;;;;7.77;3.37;;;7.20;99.90;;;;;;5097672;28;20429;-78
2021/03/12 04:35:50;;;;;;;4.33;3.07;;;7.40;99.90;;;;;;5082896;28;20457;-78
2021/03/12 04:38:16;;;;;;;7.23;3.30;;;7.40;99.90;;;;;;5086574;28;20929;-78
2021/03/12 04:40:42;;;;;;;7.33;3.70;;;7.30;99.90;;;;;;5081508;28;20592;-79
2021/03/12 04:43:31;;;;;;;9.03;4.10;;;7.30;99.90;;;;;;5093750;28;20440;-79
2021/03/12 04:46:07;;;;;;;6.83;3.60;;;7.40;99.90;;;;;;5075067;28;20509;-78
2021/03/12 04:48:41;;;;;;;6.60;3.97;;;7.50;99.90;;;;;;5106289;28;20453;-79
2021/03/12 04:51:17;;;;;;;10.73;4.30;;;7.40;99.90;;;;;;5087158;28;20424;-79
2021/03/12 04:53:43;;;;;;;7.03;3.77;;;7.30;99.90;;;;;;5101047;28;20434;-79
2021/03/12 04:56:32;;;;;;;6.80;4.20;;;7.40;99.90;;;;;;5062312;28;20434;-79
2021/03/12 04:59:08;;;;;;;7.63;4.17;;;7.40;99.90;;;;;;5088864;28;20484;-79
2021/03/12 05:01:43;;;;;;;7.97;4.10;;;7.20;99.90;;;;;;5100617;28;20509;-79
2021/03/12 05:04:40;;;;;;;10.50;4.77;;;7.20;99.90;;;;;;5057498;28;20450;-79
2021/03/12 05:07:27;;;;;;;9.50;3.50;;;7.30;99.90;;;;;;5052703;28;20874;-79
2021/03/12 05:10:00;;;;;;;4.73;3.87;;;7.20;99.90;;;;;;5063338;28;20487;-79
2021/03/12 05:12:41;;;;;;;7.67;4.53;;;7.20;99.90;;;;;;5062113;28;20434;-79
2021/03/12 05:15:16;;;;;;;12.27;4.90;;;7.20;99.90;;;;;;5083629;28;20471;-79
2021/03/12 05:20:55;;;;;;;7.63;4.60;;;7.20;99.90;;;;;;5023146;28;21057;-79
2021/03/12 05:23:24;;;;;;;7.53;4.60;;;7.10;99.90;;;;;;5007370;28;20682;-79
2021/03/12 05:26:17;;;;;;;12.23;5.63;;;7.30;99.90;;;;;;5006160;28;20449;-79
2021/03/12 05:28:48;;;;;;;6.37;3.70;;;7.20;99.90;;;;;;5023549;28;20594;-79
2021/03/12 05:31:39;;;;;;;7.87;3.90;;;7.00;99.90;;;;;;4990249;28;20428;-79
2021/03/12 05:34:08;;;;;;;6.80;3.57;;;7.40;99.90;;;;;;5000489;28;20488;-79
2021/03/12 05:36:48;;;;;;;8.20;3.50;;;7.40;99.90;;;;;;5007227;28;20429;-79
2021/03/12 05:39:14;;;;;;;4.33;3.40;;;7.20;99.90;;;;;;4996910;28;20416;-79
2021/03/12 05:41:43;;;;;;;9.27;2.83;;;7.00;99.90;;;;;;5008246;28;20463;-79
2021/03/12 05:44:24;;;;;;;4.73;2.53;;;7.10;99.90;;;;;;5006128;28;20200;-79
2021/03/12 05:46:59;;;;;;;5.60;2.97;;;7.30;99.90;;;;;;5048734;28;20432;-79
2021/03/12 05:49:32;;;;;;;6.50;2.73;;;7.30;99.90;;;;;;5078092;28;20467;-79
2021/03/12 05:52:01;;;;;;;4.63;3.30;;;7.50;99.90;;;;;;5083924;28;20426;-79
2021/03/12 05:54:39;;;;;;;4.37;2.07;;;7.30;99.90;;;;;;5068654;28;20871;-79
2021/03/12 05:57:11;;;;;;;6.47;2.93;;;7.20;99.90;;;;;;5084968;28;20441;-79
2021/03/12 05:59:44;;;;;;;4.70;2.20;;;7.10;99.90;;;;;;5093398;28;20414;-79
2021/03/12 06:02:28;;;;;;;8.97;2.80;;;7.20;99.90;;;;;;5088612;28;20500;-79
2021/03/12 06:05:11;;;;;;;8.87;2.07;;;7.00;99.90;;;;;;5091022;28;20850;-80
2021/03/12 06:08:06;;;;;;;5.57;2.27;;;7.20;99.90;;;;;;5085729;28;20453;-80
2021/03/12 06:10:32;;;;;;;4.30;1.83;;;7.10;99.90;;;;;;5031292;28;20441;-80
2021/03/12 06:12:58;;;;;;;4.20;1.80;;;7.10;99.90;;;;;;5091782;28;20437;-80
2021/03/12 06:15:38;;;;;;;6.97;2.07;;;7.20;99.90;;;;;;5095727;28;20218;-79
2021/03/12 06:18:21;;;;;;;4.10;2.17;;;7.10;99.90;;;;;;5105933;28;20508;-80
2021/03/12 06:20:48;;;;;;;6.70;1.80;;;7.10;99.90;;;;;;5099157;28;20465;-79
2021/03/12 06:23:35;;;;;;;9.90;3.17;;;7.30;99.90;;;;;;5088776;28;20421;-79
2021/03/12 06:26:02;;;;;;;5.33;1.67;;;7.10;99.90;;;;;;5089013;28;20430;-79
2021/03/12 06:28:31;;;;;;;9.17;2.40;;;7.10;99.90;;;;;;5114215;28;20411;-79
2021/03/12 06:31:00;;;;;;;6.57;2.03;;;7.20;99.90;;;;;;5069717;28;20434;-79
2021/03/12 06:33:39;;;;;;;4.47;2.07;;;7.20;99.90;;;;;;5084785;28;21051;-79
2021/03/12 06:36:36;;;;;;;7.90;2.40;;;7.10;99.90;;;;;;5088224;28;20451;-79
2021/03/12 06:39:11;;;;;;;6.63;2.30;;;7.20;99.90;;;;;;5069368;28;20791;-79
2021/03/12 06:41:52;;;;;;;5.70;1.83;;;7.40;99.90;;;;;;5055852;28;20853;-79
2021/03/12 06:44:37;;;;;;;6.47;2.77;;;7.30;99.90;;;;;;5100344;28;20937;-79
2021/03/12 06:47:12;;;;;;;6.20;1.80;;;7.20;99.90;;;;;;5052728;28;20458;-80
2021/03/12 06:50:09;;;;;;;6.47;2.40;;;7.20;99.90;;;;;;5084011;28;20404;-79
2021/03/12 06:52:45;;;;;;;9.27;2.37;;;7.30;99.90;;;;;;5088647;28;20432;-79
2021/03/12 06:55:11;;;;;;;7.97;2.20;;;7.00;99.90;;;;;;5087291;28;20430;-79
2021/03/12 06:57:45;;;;;;;11.37;2.33;;;7.00;99.90;;;;;;5096650;28;20479;-79
2021/03/12 07:00:12;;;;;;;8.83;2.30;;;6.90;99.90;;;;;;5069501;28;20425;-79
2021/03/12 07:02:47;;;;;;;10.83;2.60;;;7.10;99.90;;;;;;5087992;28;20607;-79
2021/03/12 07:05:16;;;;;;;12.60;3.27;;;7.00;99.90;;;;;;5104933;27;20508;-79
2021/03/12 07:07:48;;;;;;;13.13;3.60;;;7.20;99.90;;;;;;5093932;28;20899;-79
2021/03/12 07:10:40;;;;;;;9.87;2.20;;;7.20;99.90;;;;;;5053779;28;20519;-79
2021/03/12 07:13:15;;;;;;;7.23;2.10;;;7.00;99.90;;;;;;5069477;28;20422;-80
2021/03/12 07:19:09;;;;;;;6.20;2.37;;;7.10;99.90;;;;;;5008780;28;20892;-79
2021/03/12 07:22:16;;;;;;;7.67;3.13;;;7.20;99.90;;;;;;4997045;28;21187;-77
2021/03/12 07:24:51;;;;;;;16.00;4.20;;;7.20;99.90;;;;;;5043887;28;20956;-75
2021/03/12 07:30:26;;;;;;;10.27;2.40;;;7.40;99.90;;;;;;5013651;28;20428;-76
2021/03/12 07:33:01;;;;;;;6.43;2.20;;;7.40;99.90;;;;;;5017452;28;20424;-76
2021/03/12 07:38:43;;;;;;;9.00;3.10;;;7.60;99.90;;;;;;5045390;28;21132;-76
2021/03/12 07:41:09;;;;;;;8.17;3.10;;;7.30;99.90;;;;;;5100543;28;20472;-76
2021/03/12 07:43:37;;;;;;;11.60;3.37;;;7.80;99.90;;;;;;5074719;28;20434;-75
2021/03/12 07:46:06;;;;;;;13.30;3.50;;;7.50;99.90;;;;;;5095997;28;20283;-75
2021/03/12 07:48:32;;;;;;;8.50;2.67;;;7.50;99.90;;;;;;5089195;28;20580;-76
2021/03/12 07:51:10;;;;;;;10.93;4.20;;;7.50;99.90;;;;;;5089784;28;20521;-76
2021/03/12 07:53:55;;;;;;;8.03;3.03;;;7.30;99.90;;;;;;5105586;28;20963;-76
2021/03/12 07:56:45;;;;;;;8.60;3.33;;;7.40;99.90;;;;;;5109325;28;20524;-76
2021/03/12 07:59:12;;;;;;;6.90;4.20;;;7.60;99.90;;;;;;5086393;28;20652;-76
2021/03/12 08:01:53;;;;;;;8.87;3.03;;;7.60;99.90;;;;;;5090166;28;20465;-76
2021/03/12 08:04:33;;;;;;;13.63;3.53;;;7.80;99.90;;;;;;5107599;28;20439;-76
2021/03/12 08:07:20;;;;;;;10.27;3.07;;;7.80;99.90;;;;;;5092727;28;20406;-76
2021/03/12 08:09:51;;;;;;;6.83;2.37;;;7.90;99.90;;;;;;5105828;28;20440;-76
2021/03/12 08:12:40;;;;;;;8.60;2.77;;;8.00;99.90;;;;;;5096913;28;20447;-76
2021/03/12 08:15:19;;;;;;;8.60;3.37;;;8.10;99.90;;;;;;5084696;28;20431;-76
2021/03/12 08:17:58;;;;;;;8.27;2.80;;;8.20;99.90;;;;;;5059019;28;20855;-75
2021/03/12 08:20:28;;;;;;;9.23;2.53;;;8.10;99.90;;;;;;5099613;28;20426;-76
2021/03/12 08:22:56;;;;;;;10.73;3.00;;;8.20;99.90;;;;;;5089727;28;20480;-75
2021/03/12 08:25:31;;;;;;;8.43;2.30;;;8.10;99.90;;;;;;5087383;28;20449;-76
2021/03/12 08:27:58;;;;;;;5.20;2.10;;;8.10;99.90;;;;;;5083334;28;20509;-76
2021/03/12 08:30:26;;;;;;;9.47;3.40;;;8.20;99.90;;;;;;5085685;28;20426;-76
2021/03/12 08:32:58;;;;;;;7.30;3.03;;;8.10;99.90;;;;;;5087461;28;20419;-76
2021/03/12 08:35:33;;;;;;;5.93;2.60;;;8.20;99.90;;;;;;5087317;28;20193;-76
2021/03/12 08:38:19;;;;;;;8.00;3.60;;;8.10;99.90;;;;;;5083297;28;20828;-76
2021/03/12 08:41:13;;;;;;;11.07;2.70;;;8.30;99.90;;;;;;5085049;28;20478;-76
2021/03/12 08:43:46;;;;;;;8.60;2.87;;;7.90;99.90;;;;;;5085392;28;20967;-76
2021/03/12 08:46:16;;;;;;;9.17;2.90;;;8.10;99.90;;;;;;5086349;28;20418;-76
2021/03/12 08:48:43;;;;;;;7.43;2.40;;;8.30;99.90;;;;;;5106084;28;20418;-76
2021/03/12 08:51:18;;;;;;;11.53;2.40;;;8.50;99.90;;;;;;5102535;28;20526;-76
2021/03/12 08:53:50;;;;;;;11.13;4.03;;;8.30;99.90;;;;;;5107309;28;20439;-76
2021/03/12 08:56:27;;;;;;;8.13;3.07;;;8.40;99.90;;;;;;5107801;28;20433;-76
2021/03/12 08:58:53;;;;;;;7.17;3.30;;;8.60;99.90;;;;;;5076446;28;20456;-76
2021/03/12 09:01:24;;;;;;;10.90;2.73;;;8.90;99.90;;;;;;5088169;28;20561;-75
2021/03/12 09:03:57;;;;;;;9.97;2.97;;;8.70;99.90;;;;;;5097328;28;20436;-76
2021/03/12 09:06:45;;;;;;;7.13;2.30;;;8.70;99.90;;;;;;5103469;28;20736;-76
2021/03/12 09:09:10;;;;;;;10.83;2.90;;;8.80;99.90;;;;;;5139998;27;20486;-76
2021/03/12 09:11:37;;;;;;;6.00;2.40;;;8.70;99.90;;;;;;5106176;28;20852;-76
2021/03/12 09:14:05;;;;;;;9.60;2.50;;;8.60;99.90;;;;;;5087337;28;20233;-76
2021/03/12 09:16:31;;;;;;;7.83;2.60;;;8.60;99.90;;;;;;5092753;28;20452;-75
2021/03/12 09:18:57;;;;;;;10.93;3.17;;;8.50;99.90;;;;;;5087136;28;20457;-77
2021/03/12 09:21:25;;;;;;;5.67;2.40;;;8.60;99.90;;;;;;5102019;28;20510;-76
2021/03/12 09:23:53;;;;;;;9.83;2.90;;;8.60;99.90;;;;;;5066713;28;20181;-76
2021/03/12 09:26:37;;;;;;;9.70;2.50;;;8.70;99.90;;;;;;5093817;28;20429;-76
2021/03/12 09:29:05;;;;;;;9.70;2.60;;;8.50;99.90;;;;;;5073557;28;20807;-76
2021/03/12 09:31:41;;;;;;;6.50;2.70;;;8.80;99.90;;;;;;5051551;28;20783;-76
2021/03/12 09:34:15;;;;;;;10.97;3.00;;;8.80;99.90;;;;;;5089993;28;20434;-76
2021/03/12 09:36:46;;;;;;;8.30;2.80;;;9.00;99.90;;;;;;5093336;28;20442;-76
2021/03/12 09:39:24;;;;;;;9.60;2.97;;;9.30;99.90;;;;;;5087776;28;20436;-76
2021/03/12 09:42:08;;;;;;;7.67;3.17;;;9.20;99.90;;;;;;5098187;28;20497;-76
2021/03/12 09:44:34;;;;;;;4.93;2.43;;;8.90;99.90;;;;;;5075876;28;20555;-76
2021/03/12 09:47:10;;;;;;;9.60;2.50;;;8.90;99.90;;;;;;5068543;28;20999;-77
2021/03/12 09:49:40;;;;;;;6.27;3.10;;;9.40;99.90;;;;;;5098298;28;20436;-76
2021/03/12 09:52:07;;;;;;;5.40;2.73;;;9.40;99.90;;;;;;5104560;28;20731;-76
2021/03/12 09:54:33;;;;;;;8.23;3.00;;;9.70;99.90;;;;;;5106367;28;20433;-76
2021/03/12 09:56:59;;;;;;;6.97;3.00;;;9.90;99.90;;;;;;5106769;28;20542;-76
2021/03/12 09:59:28;;;;;;;11.10;2.83;;;9.90;99.90;;;;;;5076518;28;20431;-76
2021/03/12 10:02:00;;;;;;;8.00;3.07;;;9.90;99.90;;;;;;5067668;28;20596;-76
2021/03/12 10:04:37;;;;;;;6.80;3.00;;;10.10;99.90;;;;;;5085802;28;20579;-76
2021/03/12 10:07:06;;;;;;;7.33;2.77;;;9.70;99.90;;;;;;5087544;28;20467;-75
2021/03/12 10:09:37;;;;;;;6.10;3.30;;;9.80;99.90;;;;;;5065121;28;20810;-76
2021/03/12 10:12:04;;;;;;;8.97;2.87;;;9.70;99.90;;;;;;5077857;28;20414;-76
2021/03/12 10:14:41;;;;;;;5.90;1.93;;;10.00;99.90;;;;;;5077490;28;20433;-76
2021/03/12 10:17:23;;;;;;;9.57;2.90;;;10.20;99.90;;;;;;5090790;28;20848;-76
2021/03/12 10:20:04;;;;;;;5.87;2.63;;;10.50;99.90;;;;;;5085881;28;20453;-76
2021/03/12 10:22:42;;;;;;;12.40;3.17;;;10.40;99.90;;;;;;5077296;28;20480;-76
2021/03/12 10:25:13;;;;;;;7.73;3.10;;;10.80;99.90;;;;;;5108201;28;20690;-76
2021/03/12 10:27:44;;;;;;;9.33;3.73;;;11.00;99.90;;;;;;5138585;27;20410;-76
2021/03/12 10:30:20;;;;;;;7.43;3.87;;;10.70;99.90;;;;;;5076877;28;20483;-76
2021/03/12 10:32:54;;;;;;;9.83;3.23;;;10.60;99.90;;;;;;5092218;28;20421;-76
2021/03/12 10:35:24;;;;;;;9.37;3.30;;;10.50;99.90;;;;;;5104442;28;20449;-76
2021/03/12 10:37:53;;;;;;;10.80;3.00;;;10.30;99.90;;;;;;5106074;28;20413;-76
2021/03/12 10:40:20;;;;;;;8.00;2.50;;;10.20;99.90;;;;;;5108251;28;20457;-76
2021/03/12 10:42:46;;;;;;;6.87;2.50;;;10.30;99.90;;;;;;5108783;28;20843;-76
2021/03/12 10:45:29;;;;;;;6.70;2.97;;;10.10;99.90;;;;;;5082182;28;20467;-75
2021/03/12 10:48:05;;;;;;;9.70;2.70;;;10.10;99.90;;;;;;5089160;28;20430;-76
2021/03/12 10:50:41;;;;;;;8.00;3.10;;;10.00;99.90;;;;;;5107642;28;20467;-76
2021/03/12 10:53:09;;;;;;;10.03;3.30;;;10.10;99.90;;;;;;5096419;28;20776;-76
2021/03/12 10:55:43;;;;;;;10.10;1.97;;;10.30;99.90;;;;;;5109850;28;20874;-76
2021/03/12 10:58:33;;;;;;;10.93;2.50;;;10.60;99.90;;;;;;5092874;28;20934;-76
2021/03/12 11:01:06;;;;;;;7.33;2.33;;;10.50;99.90;;;;;;5081575;28;20466;-76
2021/03/12 11:03:32;;;;;;;9.43;2.37;;;10.60;99.90;;;;;;5099444;28;20417;-76
2021/03/12 11:05:58;;;;;;;4.73;2.10;;;10.60;99.90;;;;;;5108107;28;20424;-76
2021/03/12 11:08:30;;;;;;;8.57;2.67;;;10.60;99.90;;;;;;5084234;28;20183;-76
2021/03/12 11:10:56;;;;;;;4.57;2.00;;;10.80;99.90;;;;;;5107401;28;20456;-76
2021/03/12 11:13:22;;;;;;;10.43;2.63;;;10.80;99.80;;;;;;5106668;28;20428;-75
2021/03/12 11:15:48;;;;;;;8.00;1.93;;;10.50;99.60;;;;;;5087913;28;20418;-76
2021/03/12 11:18:16;;;;;;;6.83;2.30;;;10.40;99.90;;;;;;5095928;28;20421;-75
2021/03/12 11:20:42;;;;;;;8.47;2.23;;;10.10;99.90;;;;;;5101306;28;20421;-75
2021/03/12 11:23:08;;;;;;;7.73;2.20;;;10.20;99.90;;;;;;5080853;28;20430;-77
2021/03/12 11:25:34;;;;;;;6.13;2.23;;;10.30;99.90;;;;;;5089915;28;20425;-77
2021/03/12 11:28:01;;;;;;;9.57;2.47;;;9.80;99.90;;;;;;5082800;28;20813;-77
2021/03/12 11:30:27;;;;;;;8.07;2.30;;;9.90;99.90;;;;;;5079494;28;20180;-77
2021/03/12 11:32:53;;;;;;;5.03;2.10;;;9.90;99.90;;;;;;5096770;28;20414;-74
2021/03/12 11:35:19;;;;;;;6.20;2.20;;;10.10;99.90;;;;;;5103372;28;20417;-75
2021/03/12 11:37:47;;;;;;;11.00;2.30;;;10.30;99.90;;;;;;5101507;28;20550;-74
2021/03/12 11:40:16;;;;;;;7.63;2.13;;;10.40;99.90;;;;;;5101486;28;20432;-77
2021/03/12 11:42:42;;;;;;;6.80;2.20;;;10.30;98.90;;;;;;5081735;28;20239;-77
2021/03/12 11:45:11;;;;;;;5.00;2.00;;;10.40;98.80;;;;;;5077263;28;20434;-77
2021/03/12 11:47:38;;;;;;;4.27;1.77;;;10.40;98.50;;;;;;5089119;28;20844;-77
2021/03/12 11:50:10;;;;;;;5.37;1.70;;;10.40;98.80;;;;;;5086681;28;20646;-77
2021/03/12 11:52:37;;;;;;;5.57;1.90;;;10.70;99.40;;;;;;5093284;28;20422;-77
2021/03/12 11:55:05;;;;;;;10.40;2.30;;;10.80;98.30;;;;;;5104240;28;20421;-77
2021/03/12 11:57:31;;;;;;;6.00;2.23;;;10.70;98.10;;;;;;5090586;28;20455;-77
2021/03/12 11:59:56;;;;;;;4.30;2.20;;;10.60;97.90;;;;;;5086498;28;20438;-77
2021/03/12 12:02:22;;;;;;;6.37;2.27;;;10.50;98.50;;;;;;5098306;28;20211;-77
2021/03/12 12:04:48;;;;;;;4.57;2.27;;;10.60;98.20;;;;;;5092539;28;20199;-74
2021/03/12 12:07:15;;;;;;;13.90;2.03;;;10.50;98.60;;;;;;5108057;28;20643;-74
2021/03/12 12:09:41;;;;;;;5.67;1.80;;;10.70;98.10;;;;;;5085623;28;20214;-74
2021/03/12 12:12:09;;;;;;;7.43;2.17;;;10.90;98.00;;;;;;5104108;28;20449;-74
2021/03/12 12:14:35;;;;;;;5.90;2.00;;;11.00;97.50;;;;;;5081519;28;20471;-77
2021/03/12 12:17:01;;;;;;;5.40;1.63;;;11.10;97.20;;;;;;5096290;28;20459;-74
2021/03/12 12:19:26;;;;;;;5.87;2.13;;;11.30;96.90;;;;;;5070202;28;20460;-75
2021/03/12 12:21:52;;;;;;;11.63;2.43;;;11.20;96.20;;;;;;5086663;28;20474;-74
2021/03/12 12:24:21;;;;;;;10.67;2.27;;;11.20;96.90;;;;;;5104786;28;20539;-74
2021/03/12 12:26:49;;;;;;;8.03;2.30;;;10.90;96.90;;;;;;5108297;28;20789;-74
2021/03/12 12:29:15;;;;;;;3.17;1.70;;;11.10;96.90;;;;;;5102759;28;20422;-77
2021/03/12 12:31:41;;;;;;;5.00;1.90;;;11.10;96.50;;;;;;5049936;28;20460;-77
2021/03/12 12:34:07;;;;;;;8.43;2.10;;;11.10;96.00;;;;;;5094081;28;20200;-77
2021/03/12 12:36:33;;;;;;;8.20;1.90;;;11.30;96.10;;;;;;5108347;28;20519;-77
2021/03/12 12:39:01;;;;;;;6.60;2.10;;;11.20;96.60;;;;;;5098178;28;20425;-77
2021/03/12 12:41:27;;;;;;;7.47;3.10;;;11.30;96.70;;;;;;5096004;28;20674;-74
2021/03/12 12:43:53;;;;;;;4.67;1.83;;;11.20;96.60;;;;;;5090921;28;20579;-74
2021/03/12 12:46:19;;;;;;;7.07;2.30;;;11.20;95.80;;;;;;5059220;28;20196;-74
2021/03/12 12:48:46;;;;;;;4.37;2.10;;;11.30;95.70;;;;;;5070459;28;20417;-77
2021/03/12 12:51:12;;;;;;;5.93;1.80;;;11.00;95.70;;;;;;5090365;28;20422;-74
2021/03/12 12:53:38;;;;;;;6.53;1.87;;;10.80;96.20;;;;;;5093545;28;20427;-77
2021/03/12 12:56:04;;;;;;;5.03;1.87;;;10.70;96.40;;;;;;5093248;28;20176;-77
2021/03/12 12:58:30;;;;;;;4.23;1.63;;;10.80;96.50;;;;;;5103484;28;20532;-77
2021/03/12 13:00:56;;;;;;;7.10;1.90;;;10.70;95.90;;;;;;5082356;28;20600;-77
2021/03/12 13:03:23;;;;;;;4.53;1.70;;;10.50;95.70;;;;;;5069348;28;20525;-77
2021/03/12 13:05:49;;;;;;;7.03;1.90;;;10.50;97.30;;;;;;5086967;28;20801;-77
2021/03/12 13:08:16;;;;;;;7.63;1.70;;;10.30;98.00;;;;;;5101216;28;20434;-77
2021/03/12 13:10:41;;;;;;;4.47;1.73;;;10.30;97.70;;;;;;5098227;28;20590;-76
2021/03/12 13:13:07;;;;;;;6.20;1.67;;;10.30;97.80;;;;;;5106007;28;20973;-77
2021/03/12 13:15:33;;;;;;;4.20;1.63;;;10.40;97.40;;;;;;5086039;28;20557;-74
2021/03/12 13:18:00;;;;;;;7.73;2.00;;;10.60;97.10;;;;;;5088222;28;20204;-74
2021/03/12 13:20:26;;;;;;;8.30;1.60;;;10.90;96.40;;;;;;5098181;28;20928;-74
2021/03/12 13:22:52;;;;;;;6.97;1.87;;;11.20;96.10;;;;;;5105873;28;20480;-77
2021/03/12 13:25:20;;;;;;;7.33;1.80;;;11.10;96.30;;;;;;5085458;28;20804;-77
2021/03/12 13:27:46;;;;;;;7.87;2.30;;;11.00;96.30;;;;;;5068442;28;20539;-75
2021/03/12 13:30:15;;;;;;;4.57;1.60;;;10.80;97.70;;;;;;5078379;28;20488;-77
2021/03/12 13:32:42;;;;;;;5.70;2.23;;;10.80;98.60;;;;;;5093960;28;20446;-77
2021/03/12 13:35:10;;;;;;;5.50;2.27;;;10.50;99.90;;;;;;5068134;28;20425;-77
2021/03/12 13:37:42;;;;;;;6.10;2.00;;;10.40;99.80;;;;;;5105457;28;20521;-77
2021/03/12 13:40:11;;;;;;;3.20;1.30;;;10.60;99.90;;;;;;5088310;28;20422;-74
2021/03/12 13:42:37;;;;;;;6.33;1.40;;;10.70;99.90;;;;;;5105442;28;20502;-74